createdAt,value
2018-08-03T00:05:17.662Z,44.79
2018-08-03T00:10:36.757Z,44.68
2018-08-03T00:13:09.313Z,44.97
2018-08-03T00:15:40.737Z,44.77
2018-08-03T00:18:11.840Z,44.85
2018-08-03T00:20:42.345Z,45.04
2018-08-03T00:23:13.644Z,45.06
2018-08-03T00:25:44.739Z,44.56
2018-08-03T00:28:15.821Z,44.96
2018-08-03T00:30:46.326Z,44.96
2018-08-03T00:33:17.714Z,44.81
2018-08-03T00:36:10.721Z,45.01
2018-08-03T00:38:41.974Z,44.88
2018-08-03T00:41:13.355Z,44.86
2018-08-03T00:43:44.568Z,44.62
2018-08-03T00:46:15.748Z,44.81
2018-08-03T00:48:46.872Z,44.83
2018-08-03T00:51:17.378Z,45.46
2018-08-03T00:53:48.571Z,44.77
2018-08-03T00:56:19.676Z,44.92
2018-08-03T00:58:50.696Z,44.62
2018-08-03T01:01:21.721Z,45.00
2018-08-03T01:03:59.218Z,45.09
2018-08-03T01:06:30.537Z,44.85
2018-08-03T01:11:48.636Z,44.92
2018-08-03T01:14:19.712Z,45.26
2018-08-03T01:16:50.684Z,44.81
2018-08-03T01:25:02.545Z,45.06
2018-08-03T01:27:33.690Z,44.36
2018-08-03T01:30:04.797Z,44.62
2018-08-03T01:32:35.822Z,44.57
2018-08-03T01:35:13.808Z,44.58
2018-08-03T01:38:41.604Z,44.69
2018-08-03T01:41:12.673Z,44.51
2018-08-03T01:43:43.723Z,44.62
2018-08-03T01:46:14.840Z,44.60
2018-08-03T01:48:45.342Z,44.91
2018-08-03T01:51:16.620Z,44.26
2018-08-03T01:53:47.574Z,43.70
2018-08-03T01:56:18.692Z,44.32
2018-08-03T01:58:49.706Z,44.38
2018-08-03T02:01:20.895Z,44.29
2018-08-03T02:03:51.585Z,44.19
2018-08-03T02:09:10.885Z,44.13
2018-08-03T02:11:41.362Z,43.78
2018-08-03T02:16:54.615Z,43.96
2018-08-03T02:19:25.739Z,44.76
2018-08-03T02:21:57.211Z,44.29
2018-08-03T02:24:28.462Z,44.31
2018-08-03T02:27:00.852Z,44.31
2018-08-03T02:29:42.596Z,44.62
2018-08-03T02:32:37.463Z,44.36
2018-08-03T02:38:02.909Z,44.66
2018-08-03T02:43:44.776Z,44.48
2018-08-03T02:46:15.839Z,44.67
2018-08-03T02:51:40.846Z,44.64
2018-08-03T02:54:11.428Z,44.50
2018-08-03T02:56:42.710Z,44.65
2018-08-03T02:59:13.791Z,44.86
2018-08-03T03:01:44.848Z,45.00
2018-08-03T03:04:15.445Z,44.96
2018-08-03T03:06:46.650Z,44.88
2018-08-03T03:09:17.703Z,45.05
2018-08-03T03:11:48.757Z,44.96
2018-08-03T03:14:20.072Z,44.66
2018-08-03T03:16:51.412Z,45.05
2018-08-03T03:19:22.664Z,45.08
2018-08-03T03:21:53.892Z,45.03
2018-08-03T03:24:24.355Z,44.62
2018-08-03T03:26:55.729Z,44.86
2018-08-03T03:29:27.195Z,45.07
2018-08-03T03:31:58.545Z,44.63
2018-08-03T03:34:29.715Z,44.62
2018-08-03T03:37:00.927Z,44.49
2018-08-03T03:39:31.881Z,43.89
2018-08-03T03:42:02.849Z,44.50
2018-08-03T03:44:33.321Z,43.81
2018-08-03T03:49:50.664Z,43.10
2018-08-03T03:52:21.732Z,44.21
2018-08-03T03:54:53.210Z,44.12
2018-08-03T04:00:10.802Z,44.21
2018-08-03T04:02:41.985Z,43.01
2018-08-03T04:05:13.219Z,43.51
2018-08-03T04:07:55.773Z,44.19
2018-08-03T04:10:26.564Z,43.29
2018-08-03T04:12:57.715Z,43.43
2018-08-03T04:15:28.798Z,42.86
2018-08-03T04:17:59.925Z,45.32
2018-08-03T04:20:30.894Z,43.75
2018-08-03T04:23:01.354Z,43.43
2018-08-03T04:25:32.670Z,42.02
2018-08-03T04:28:04.307Z,42.84
2018-08-03T04:30:35.580Z,43.01
2018-08-03T04:33:06.714Z,43.02
2018-08-03T04:35:37.813Z,41.13
2018-08-03T04:38:08.903Z,41.94
2018-08-03T04:40:39.712Z,41.29
2018-08-03T04:43:10.727Z,41.89
2018-08-03T04:45:41.908Z,41.81
2018-08-03T04:48:13.408Z,40.94
2018-08-03T04:50:44.725Z,42.69
2018-08-03T04:53:15.830Z,42.55
2018-08-03T04:55:46.360Z,43.76
2018-08-03T04:58:17.680Z,43.41
2018-08-03T05:00:48.730Z,41.95
2018-08-03T05:03:19.951Z,41.96
2018-08-03T05:05:52.785Z,42.08
2018-08-03T05:08:23.858Z,42.92
2018-08-03T05:10:54.342Z,43.15
2018-08-03T05:16:17.391Z,42.95
2018-08-03T05:18:48.618Z,42.62
2018-08-03T05:21:19.770Z,43.51
2018-08-03T05:23:51.361Z,42.41
2018-08-03T05:26:22.789Z,42.49
2018-08-03T05:28:53.325Z,43.94
2018-08-03T05:31:24.696Z,42.04
2018-08-03T05:33:56.234Z,42.87
2018-08-03T05:36:27.726Z,42.60
2018-08-03T05:38:58.976Z,42.36
2018-08-03T05:41:30.433Z,42.51
2018-08-03T05:44:01.782Z,41.83
2018-08-03T05:46:33.411Z,42.98
2018-08-03T05:49:04.873Z,41.51
2018-08-03T05:51:35.645Z,43.49
2018-08-03T05:54:06.884Z,42.20
2018-08-03T05:56:37.360Z,41.95
2018-08-03T05:59:08.769Z,42.25
2018-08-03T06:01:40.288Z,42.40
2018-08-03T06:04:11.682Z,42.77
2018-08-03T06:06:43.209Z,43.24
2018-08-03T06:09:14.684Z,42.76
2018-08-03T06:11:45.961Z,42.71
2018-08-03T06:14:17.614Z,42.45
2018-08-03T06:16:48.812Z,43.04
2018-08-03T06:19:19.875Z,42.72
2018-08-03T06:21:50.325Z,42.92
2018-08-03T06:24:21.586Z,42.88
2018-08-03T06:26:52.736Z,42.90
2018-08-03T06:29:23.883Z,43.33
2018-08-03T06:31:54.339Z,43.27
2018-08-03T06:34:25.654Z,43.52
2018-08-03T06:36:56.707Z,43.01
2018-08-03T06:39:27.957Z,42.95
2018-08-03T06:41:59.200Z,42.79
2018-08-03T06:44:30.455Z,43.25
2018-08-03T06:47:01.693Z,44.33
2018-08-03T06:49:32.841Z,43.43
2018-08-03T06:52:03.337Z,43.23
2018-08-03T06:54:34.663Z,43.30
2018-08-03T06:57:05.782Z,43.99
2018-08-03T06:59:38.226Z,43.61
2018-08-03T07:02:09.664Z,43.62
2018-08-03T07:04:40.744Z,43.67
2018-08-03T07:07:11.885Z,44.36
2018-08-03T07:12:47.491Z,43.84
2018-08-03T07:15:20.309Z,44.01
2018-08-03T07:20:55.385Z,44.65
2018-08-03T07:23:27.306Z,44.48
2018-08-03T07:26:04.592Z,43.11
2018-08-03T07:28:35.712Z,43.51
2018-08-03T07:31:07.743Z,43.65
2018-08-03T07:33:38.866Z,43.35
2018-08-03T07:36:09.613Z,43.52
2018-08-03T07:38:40.954Z,44.10
2018-08-03T07:43:58.845Z,43.82
2018-08-03T07:46:29.348Z,44.59
2018-08-03T07:49:00.546Z,43.79
2018-08-03T07:51:31.636Z,44.00
2018-08-03T07:54:02.701Z,44.12
2018-08-03T07:56:33.728Z,43.93
2018-08-03T07:59:05.226Z,43.86
2018-08-03T08:01:36.713Z,44.34
2018-08-03T08:04:08.688Z,43.75
2018-08-03T08:07:02.656Z,43.13
2018-08-03T08:09:47.705Z,43.46
2018-08-03T08:12:18.757Z,42.86
2018-08-03T08:14:49.831Z,43.28
2018-08-03T08:17:20.481Z,43.00
2018-08-03T08:19:51.650Z,43.73
2018-08-03T08:28:03.287Z,43.30
2018-08-03T08:33:18.308Z,43.33
2018-08-03T08:35:49.898Z,43.30
2018-08-03T08:38:32.035Z,43.54
2018-08-03T08:41:03.523Z,42.96
2018-08-03T08:43:34.706Z,44.13
2018-08-03T08:46:30.299Z,43.15
2018-08-03T08:49:13.366Z,42.60
2018-08-03T08:51:44.653Z,41.87
2018-08-03T08:54:16.366Z,41.40
2018-08-03T08:56:47.615Z,42.30
2018-08-03T08:59:18.755Z,41.88
2018-08-03T09:01:49.827Z,42.97
2018-08-03T09:04:20.357Z,42.23
2018-08-03T09:06:51.718Z,43.71
2018-08-03T09:09:22.760Z,43.12
2018-08-03T09:11:53.863Z,42.54
2018-08-03T09:14:24.575Z,41.84
2018-08-03T09:16:55.696Z,43.55
2018-08-03T09:19:26.870Z,42.31
2018-08-03T09:27:21.743Z,42.81
2018-08-03T09:29:53.221Z,40.94
2018-08-03T09:32:24.505Z,42.08
2018-08-03T09:34:56.496Z,40.76
2018-08-03T09:37:28.404Z,40.54
2018-08-03T09:39:59.397Z,43.54
2018-08-03T09:42:30.989Z,42.37
2018-08-03T09:45:01.999Z,42.23
2018-08-03T09:47:33.209Z,42.68
2018-08-03T09:50:04.591Z,42.96
2018-08-03T09:52:59.574Z,41.41
2018-08-03T09:55:30.673Z,43.68
2018-08-03T09:58:01.697Z,42.42
2018-08-03T10:00:37.840Z,42.45
2018-08-03T10:03:08.318Z,44.07
2018-08-03T10:05:39.579Z,42.37
2018-08-03T10:08:10.688Z,42.55
2018-08-03T10:10:41.674Z,40.83
2018-08-03T10:13:12.700Z,42.77
2018-08-03T10:15:43.703Z,43.22
2018-08-03T10:18:14.708Z,41.93
2018-08-03T10:20:45.827Z,40.74
2018-08-03T10:26:03.427Z,42.07
2018-08-03T10:28:47.051Z,41.45
2018-08-03T10:31:18.794Z,42.42
2018-08-03T10:33:50.470Z,42.04
2018-08-03T10:36:28.520Z,43.53
2018-08-03T10:38:59.774Z,43.40
2018-08-03T10:41:55.483Z,42.57
2018-08-03T10:48:02.486Z,43.45
2018-08-03T10:53:21.678Z,39.68
2018-08-03T10:55:52.791Z,42.17
2018-08-03T10:58:23.875Z,40.61
2018-08-03T11:00:54.374Z,40.23
2018-08-03T11:03:37.536Z,42.17
2018-08-03T11:11:33.779Z,41.03
2018-08-03T11:14:16.310Z,41.00
2018-08-03T11:16:47.720Z,43.13
2018-08-03T11:19:18.802Z,41.71
2018-08-03T11:21:49.695Z,40.70
2018-08-03T11:24:20.661Z,42.23
2018-08-03T11:26:51.681Z,42.27
2018-08-03T11:29:22.715Z,42.88
2018-08-03T11:31:53.832Z,43.55
2018-08-03T11:34:24.364Z,43.21
2018-08-03T11:36:55.562Z,43.37
2018-08-03T11:39:27.312Z,43.37
2018-08-03T11:45:08.831Z,43.18
2018-08-03T11:53:10.009Z,43.42
2018-08-03T11:55:41.479Z,42.02
2018-08-03T11:58:12.672Z,42.63
2018-08-03T12:00:43.750Z,43.88
2018-08-03T12:03:14.909Z,43.85
2018-08-03T12:05:46.554Z,42.35
2018-08-03T12:08:17.661Z,42.71
2018-08-03T12:10:49.517Z,43.37
2018-08-03T12:13:20.687Z,43.43
2018-08-03T12:15:51.735Z,42.78
2018-08-03T12:18:22.832Z,42.43
2018-08-03T12:20:53.424Z,43.66
2018-08-03T12:23:24.666Z,43.08
2018-08-03T12:28:32.809Z,43.84
2018-08-03T12:31:03.304Z,43.58
2018-08-03T12:33:34.560Z,42.99
2018-08-03T12:36:05.705Z,43.98
2018-08-03T12:38:36.713Z,43.71
2018-08-03T12:44:22.362Z,43.54
2018-08-03T12:46:53.618Z,43.62
2018-08-03T12:49:24.631Z,44.15
2018-08-03T12:51:55.805Z,42.11
2018-08-03T12:54:27.433Z,43.82
2018-08-03T12:56:58.678Z,43.69
2018-08-03T12:59:29.698Z,44.33
2018-08-03T13:02:00.883Z,43.20
2018-08-03T13:04:31.364Z,43.22
2018-08-03T13:07:02.687Z,42.19
2018-08-03T13:09:33.775Z,43.44
2018-08-03T13:12:04.844Z,42.87
2018-08-03T13:14:35.351Z,44.18
2018-08-03T13:17:06.581Z,42.46
2018-08-03T13:19:37.669Z,43.38
2018-08-03T13:22:18.536Z,44.28
2018-08-03T13:24:49.668Z,43.25
2018-08-03T13:27:21.376Z,44.26
2018-08-03T13:29:52.648Z,44.32
2018-08-03T13:32:23.751Z,44.13
2018-08-03T13:34:55.557Z,44.05
2018-08-03T13:37:26.854Z,43.97
2018-08-03T13:39:57.361Z,44.27
2018-08-03T13:42:28.752Z,44.11
2018-08-03T13:44:59.866Z,42.63
2018-08-03T13:47:30.604Z,43.79
2018-08-03T13:50:02.221Z,44.37
2018-08-03T13:52:33.748Z,43.92
2018-08-03T13:55:05.355Z,43.16
2018-08-03T13:57:36.828Z,42.87
2018-08-03T14:00:11.325Z,43.48
2018-08-03T14:02:43.309Z,41.72
2018-08-03T14:05:14.806Z,43.13
2018-08-03T14:07:46.209Z,43.73
2018-08-03T14:10:17.639Z,43.08
2018-08-03T14:12:49.185Z,42.97
2018-08-03T14:15:20.612Z,43.78
2018-08-03T14:17:51.976Z,43.90
2018-08-03T14:20:23.411Z,44.20
2018-08-03T14:22:55.285Z,44.16
2018-08-03T14:25:26.828Z,43.98
2018-08-03T14:27:57.426Z,43.88
2018-08-03T14:30:28.745Z,44.02
2018-08-03T14:33:00.317Z,44.41
2018-08-03T14:35:31.793Z,44.46
2018-08-03T14:38:02.835Z,44.38
2018-08-03T14:40:34.971Z,44.37
2018-08-03T14:43:06.524Z,44.65
2018-08-03T14:45:38.221Z,43.94
2018-08-03T14:48:09.760Z,43.79
2018-08-03T14:50:41.334Z,44.39
2018-08-03T14:53:12.796Z,44.21
2018-08-03T14:56:00.725Z,44.14
2018-08-03T14:58:31.811Z,44.27
2018-08-03T15:01:02.870Z,44.34
2018-08-03T15:03:33.413Z,44.53
2018-08-03T15:06:04.679Z,44.10
2018-08-03T15:08:35.722Z,44.23
2018-08-03T15:11:06.772Z,44.26
2018-08-03T15:13:37.628Z,44.48
2018-08-03T15:16:09.047Z,44.15
2018-08-03T15:18:40.422Z,44.70
2018-08-03T15:21:11.673Z,43.26
2018-08-03T15:23:42.707Z,44.49
2018-08-03T15:26:13.822Z,44.17
2018-08-03T15:28:44.815Z,44.34
2018-08-03T15:32:40.671Z,44.17
2018-08-03T15:35:11.829Z,44.21
2018-08-03T15:37:42.550Z,44.62
2018-08-03T15:40:13.428Z,44.42
2018-08-03T15:42:44.769Z,44.26
2018-08-03T15:45:15.674Z,44.12
2018-08-03T15:47:46.499Z,44.13
2018-08-03T15:53:04.998Z,44.27
2018-08-03T15:55:36.211Z,44.25
2018-08-03T15:58:07.715Z,44.29
2018-08-03T16:02:17.734Z,44.28
2018-08-03T16:04:48.817Z,44.79
2018-08-03T16:07:19.839Z,44.65
2018-08-03T16:09:50.393Z,44.60
2018-08-03T16:12:21.626Z,44.74
2018-08-03T16:14:52.722Z,44.61
2018-08-03T16:17:24.366Z,44.40
2018-08-03T16:19:55.558Z,42.82
2018-08-03T16:22:27.711Z,43.15
2018-08-03T16:24:58.790Z,44.30
2018-08-03T16:27:29.815Z,44.33
2018-08-03T16:30:00.805Z,43.50
2018-08-03T16:32:31.868Z,43.91
2018-08-03T16:35:02.359Z,43.77
2018-08-03T16:37:33.560Z,44.50
2018-08-03T16:40:04.631Z,44.28
2018-08-03T16:42:35.728Z,44.25
2018-08-03T16:45:07.692Z,43.40
2018-08-03T16:47:38.726Z,44.17
2018-08-03T16:50:10.469Z,44.39
2018-08-03T16:52:41.705Z,44.21
2018-08-03T16:55:12.751Z,44.57
2018-08-03T16:57:43.832Z,44.59
2018-08-03T17:00:18.640Z,44.57
2018-08-03T17:02:50.245Z,44.14
2018-08-03T17:05:21.406Z,44.77
2018-08-03T17:07:52.675Z,44.52
2018-08-03T17:10:23.769Z,44.29
2018-08-03T17:12:54.841Z,44.65
2018-08-03T17:15:25.316Z,44.92
2018-08-03T17:17:56.554Z,44.43
2018-08-03T17:20:27.624Z,44.41
2018-08-03T17:22:58.692Z,45.03
2018-08-03T17:25:29.748Z,45.05
2018-08-03T17:28:00.885Z,44.64
2018-08-03T17:30:31.372Z,44.45
2018-08-03T17:33:02.592Z,44.92
2018-08-03T17:35:33.705Z,44.70
2018-08-03T17:38:04.739Z,43.82
2018-08-03T17:40:35.748Z,44.64
2018-08-03T17:43:06.872Z,44.58
2018-08-03T17:45:37.368Z,43.12
2018-08-03T17:48:08.585Z,43.46
2018-08-03T17:50:39.737Z,43.43
2018-08-03T17:53:10.814Z,41.97
2018-08-03T17:55:41.817Z,43.48
2018-08-03T17:58:12.879Z,44.41
2018-08-03T18:00:43.358Z,42.70
2018-08-03T18:03:14.601Z,44.31
2018-08-03T18:05:45.696Z,44.12
2018-08-03T18:08:16.687Z,44.79
2018-08-03T18:10:47.688Z,44.81
2018-08-03T18:13:19.215Z,44.40
2018-08-03T18:15:50.784Z,44.68
2018-08-03T18:18:22.387Z,44.65
2018-08-03T18:20:53.787Z,44.35
2018-08-03T18:23:25.328Z,44.35
2018-08-03T18:25:56.757Z,44.90
2018-08-03T18:28:27.836Z,44.48
2018-08-03T18:30:58.600Z,44.54
2018-08-03T18:33:29.848Z,44.69
2018-08-03T18:36:00.517Z,44.57
2018-08-03T18:38:31.749Z,44.90
2018-08-03T18:41:03.377Z,44.70
2018-08-03T18:43:34.760Z,44.90
2018-08-03T18:46:06.709Z,44.76
2018-08-03T18:48:37.925Z,45.07
2018-08-03T18:51:09.430Z,44.62
2018-08-03T18:53:40.739Z,44.60
2018-08-03T18:56:12.288Z,44.80
2018-08-03T18:58:43.576Z,44.97
2018-08-03T19:01:14.848Z,44.75
2018-08-03T19:03:45.488Z,44.70
2018-08-03T19:06:16.901Z,44.68
2018-08-03T19:08:48.393Z,44.91
2018-08-03T19:11:20.226Z,45.12
2018-08-03T19:13:51.688Z,44.79
2018-08-03T19:16:22.821Z,44.79
2018-08-03T19:18:53.548Z,44.96
2018-08-03T19:21:24.901Z,44.73
2018-08-03T19:23:55.568Z,44.62
2018-08-03T19:26:26.976Z,44.66
2018-08-03T19:28:58.352Z,45.19
2018-08-03T19:31:29.783Z,45.20
2018-08-03T19:34:01.233Z,44.84
2018-08-03T19:36:32.737Z,44.74
2018-08-03T19:39:04.217Z,44.80
2018-08-03T19:41:35.655Z,44.78
2018-08-03T19:44:07.094Z,45.11
2018-08-03T19:46:38.801Z,44.56
2018-08-03T19:49:10.386Z,44.77
2018-08-03T19:51:41.813Z,44.88
2018-08-03T19:54:13.230Z,44.82
2018-08-03T19:56:44.760Z,44.96
2018-08-03T19:59:15.694Z,44.75
2018-08-03T20:01:46.658Z,44.62
2018-08-03T20:04:18.191Z,44.67
2018-08-03T20:06:49.812Z,44.97
2018-08-03T20:09:21.408Z,44.87
2018-08-03T20:11:52.825Z,44.83
2018-08-03T20:14:23.564Z,44.46
2018-08-03T20:16:54.882Z,45.01
2018-08-03T20:19:25.564Z,44.94
2018-08-03T20:21:56.897Z,44.96
2018-08-03T20:24:27.489Z,45.00
2018-08-03T20:26:58.776Z,44.44
2018-08-03T20:29:30.215Z,44.78
2018-08-03T20:32:01.729Z,44.43
2018-08-03T20:34:33.355Z,44.69
2018-08-03T20:37:04.732Z,44.50
2018-08-03T20:39:36.355Z,44.75
2018-08-03T20:42:07.760Z,44.87
2018-08-03T20:44:38.696Z,44.58
2018-08-03T20:47:09.803Z,44.67
2018-08-03T20:49:41.396Z,44.76
2018-08-03T20:52:13.329Z,44.51
2018-08-03T20:54:44.736Z,44.56
2018-08-03T20:57:16.628Z,44.74
2018-08-03T20:59:47.746Z,44.56
2018-08-03T21:02:19.205Z,44.60
2018-08-03T21:04:50.705Z,44.09
2018-08-03T21:07:22.323Z,43.10
2018-08-03T21:09:53.701Z,43.29
2018-08-03T21:12:25.226Z,43.47
2018-08-03T21:14:56.685Z,43.46
2018-08-03T21:17:27.992Z,41.80
2018-08-03T21:19:59.445Z,42.82
2018-08-03T21:22:30.810Z,42.03
2018-08-03T21:25:02.209Z,41.64
2018-08-03T21:27:33.731Z,41.40
2018-08-03T21:30:06.089Z,40.57
2018-08-03T21:32:37.531Z,40.69
2018-08-03T21:35:11.332Z,41.49
2018-08-03T21:37:57.298Z,40.30
2018-08-03T21:40:39.923Z,40.62
2018-08-03T21:43:11.471Z,40.27
2018-08-03T21:45:42.773Z,40.82
2018-08-03T21:48:20.928Z,40.43
2018-08-03T21:50:52.524Z,40.69
2018-08-03T21:56:06.376Z,40.60
2018-08-03T21:58:37.751Z,40.73
2018-08-03T22:01:13.846Z,41.32
2018-08-03T22:03:44.584Z,41.62
2018-08-03T22:06:15.886Z,41.13
2018-08-03T22:08:46.506Z,41.69
2018-08-03T22:11:17.752Z,40.86
2018-08-03T22:13:48.798Z,40.13
2018-08-03T22:16:21.329Z,41.01
2018-08-03T22:18:52.834Z,41.21
2018-08-03T22:21:24.291Z,40.35
2018-08-03T22:23:57.256Z,41.12
2018-08-03T22:26:39.874Z,41.01
2018-08-03T22:29:10.349Z,39.85
2018-08-03T22:31:41.590Z,41.43
2018-08-03T22:34:12.709Z,40.26
2018-08-03T22:36:55.553Z,40.13
2018-08-03T22:39:27.301Z,40.66
2018-08-03T22:41:58.859Z,41.18
2018-08-03T22:44:29.520Z,39.38
2018-08-03T22:47:01.216Z,38.82
2018-08-03T22:49:32.683Z,39.86
2018-08-03T22:54:49.828Z,40.21
2018-08-03T22:57:20.847Z,39.94
2018-08-03T23:00:21.435Z,38.29
2018-08-03T23:03:04.397Z,39.74
2018-08-03T23:05:35.645Z,39.86
2018-08-03T23:08:07.032Z,39.05
2018-08-03T23:10:38.350Z,38.98
2018-08-03T23:13:21.670Z,41.32
2018-08-03T23:15:52.734Z,40.53
2018-08-03T23:18:23.879Z,39.43
2018-08-03T23:20:54.506Z,40.30
2018-08-03T23:23:25.639Z,39.18
2018-08-03T23:25:56.721Z,39.63
2018-08-03T23:28:29.327Z,38.85
2018-08-03T23:31:01.667Z,40.82
2018-08-03T23:33:32.775Z,39.25
2018-08-03T23:36:03.825Z,38.58
2018-08-03T23:38:34.446Z,39.97
2018-08-03T23:41:05.519Z,39.32
2018-08-03T23:46:22.296Z,40.23
2018-08-03T23:48:53.619Z,38.49
2018-08-03T23:51:25.317Z,41.34
2018-08-03T23:53:56.611Z,39.45
2018-08-03T23:56:27.681Z,40.02
2018-08-03T23:58:58.732Z,39.67
